createdAt,value
2022-12-11T00:01:34.927Z,81.56
2022-12-11T00:04:17.080Z,81.91
2022-12-11T00:06:53.973Z,81.83
2022-12-11T00:09:26.516Z,81.20
2022-12-11T00:12:02.734Z,80.53
2022-12-11T00:14:43.597Z,80.73
2022-12-11T00:17:18.410Z,81.27
2022-12-11T00:19:53.467Z,81.64
2022-12-11T00:22:34.629Z,81.57
2022-12-11T00:25:07.656Z,81.64
2022-12-11T00:27:46.574Z,81.39
2022-12-11T00:30:23.211Z,81.67
2022-12-11T00:33:07.477Z,81.30
2022-12-11T00:35:42.987Z,80.72
2022-12-11T00:38:26.336Z,80.56
2022-12-11T00:41:02.249Z,80.93
2022-12-11T00:43:39.018Z,81.05
2022-12-11T00:46:12.776Z,81.29
2022-12-11T00:48:54.199Z,81.22
2022-12-11T00:51:28.235Z,81.48
2022-12-11T00:54:02.005Z,81.53
2022-12-11T00:56:37.006Z,81.84
2022-12-11T00:59:08.774Z,81.68
2022-12-11T01:01:44.131Z,81.65
2022-12-11T01:04:15.839Z,81.85
2022-12-11T01:06:55.364Z,81.39
2022-12-11T01:09:44.421Z,81.38
2022-12-11T01:12:20.676Z,81.19
2022-12-11T01:14:53.424Z,81.15
2022-12-11T01:17:25.821Z,80.86
2022-12-11T01:20:06.323Z,80.95
2022-12-11T01:22:41.282Z,80.98
2022-12-11T01:25:14.850Z,81.29
2022-12-11T01:27:49.322Z,81.42
2022-12-11T01:30:24.064Z,81.70
2022-12-11T01:32:56.286Z,81.22
2022-12-11T01:35:30.390Z,81.43
2022-12-11T01:38:02.009Z,81.78
2022-12-11T01:40:33.552Z,81.86
2022-12-11T01:43:05.463Z,81.50
2022-12-11T01:45:42.210Z,81.24
2022-12-11T01:48:20.833Z,81.22
2022-12-11T01:51:06.099Z,81.35
2022-12-11T01:53:41.155Z,81.30
2022-12-11T01:56:13.607Z,80.53
2022-12-11T01:58:54.530Z,80.70
2022-12-11T02:01:33.725Z,80.83
2022-12-11T02:04:07.637Z,80.81
2022-12-11T02:06:42.150Z,81.03
2022-12-11T02:09:19.013Z,80.67
2022-12-11T02:12:03.632Z,80.80
2022-12-11T02:14:41.200Z,80.66
2022-12-11T02:17:19.077Z,80.86
2022-12-11T02:20:03.687Z,80.40
2022-12-11T02:22:55.428Z,80.38
2022-12-11T02:25:33.052Z,80.93
2022-12-11T02:28:30.706Z,80.81
2022-12-11T02:31:06.887Z,79.71
2022-12-11T02:36:49.087Z,80.60
2022-12-11T02:39:22.765Z,80.41
2022-12-11T02:41:56.471Z,80.57
2022-12-11T02:44:32.153Z,80.16
2022-12-11T02:47:11.840Z,80.09
2022-12-11T02:49:46.705Z,80.49
2022-12-11T02:52:18.439Z,80.22
2022-12-11T02:54:53.736Z,80.11
2022-12-11T02:57:31.609Z,79.96
2022-12-11T03:00:03.339Z,79.95
2022-12-11T03:02:35.336Z,79.97
2022-12-11T03:05:07.601Z,79.85
2022-12-11T03:07:42.435Z,80.39
2022-12-11T03:10:19.170Z,79.92
2022-12-11T03:12:57.187Z,80.22
2022-12-11T03:15:36.069Z,80.58
2022-12-11T03:18:17.959Z,79.90
2022-12-11T03:20:56.229Z,78.66
2022-12-11T03:23:36.860Z,77.89
2022-12-11T03:26:16.776Z,78.24
2022-12-11T03:28:56.299Z,78.06
2022-12-11T03:31:34.126Z,78.33
2022-12-11T03:34:14.164Z,78.06
2022-12-11T03:36:49.148Z,78.03
2022-12-11T03:39:27.541Z,77.59
2022-12-11T03:42:02.869Z,77.42
2022-12-11T03:44:37.070Z,77.42
2022-12-11T03:47:11.877Z,76.80
2022-12-11T03:49:43.694Z,76.57
2022-12-11T03:52:21.997Z,77.29
2022-12-11T03:54:56.743Z,77.80
2022-12-11T03:57:31.458Z,77.45
2022-12-11T04:00:05.507Z,77.23
2022-12-11T04:02:37.485Z,77.55
2022-12-11T04:05:17.502Z,77.95
2022-12-11T04:07:50.698Z,77.76
2022-12-11T04:10:23.389Z,77.12
2022-12-11T04:12:58.034Z,77.25
2022-12-11T04:15:29.807Z,77.39
2022-12-11T04:18:19.497Z,77.43
2022-12-11T04:21:13.337Z,77.62
2022-12-11T04:31:25.822Z,77.72
2022-12-11T04:34:00.565Z,77.44
2022-12-11T04:36:32.026Z,77.95
2022-12-11T04:39:04.083Z,78.07
2022-12-11T04:41:35.922Z,77.65
2022-12-11T04:44:07.964Z,77.68
2022-12-11T04:46:46.519Z,77.61
2022-12-11T04:49:18.626Z,77.51
2022-12-11T04:51:50.269Z,78.16
2022-12-11T04:54:27.400Z,78.53
2022-12-11T04:57:04.119Z,79.02
2022-12-11T04:59:37.458Z,79.03
2022-12-11T05:02:13.206Z,78.26
2022-12-11T05:04:45.596Z,78.28
2022-12-11T05:07:19.314Z,77.99
2022-12-11T05:09:52.401Z,78.38
2022-12-11T05:12:25.713Z,78.32
2022-12-11T05:15:03.077Z,78.56
2022-12-11T05:17:35.474Z,78.51
2022-12-11T05:20:08.625Z,78.58
2022-12-11T05:22:45.845Z,78.71
2022-12-11T05:25:21.320Z,78.50
2022-12-11T05:27:53.262Z,78.27
2022-12-11T05:30:25.612Z,78.12
2022-12-11T05:32:58.322Z,78.71
2022-12-11T05:35:36.079Z,79.14
2022-12-11T05:38:14.477Z,79.14
2022-12-11T05:40:49.647Z,79.24
2022-12-11T05:43:21.707Z,79.91
2022-12-11T05:45:56.403Z,79.88
2022-12-11T05:48:26.334Z,79.88
2022-12-11T05:51:02.846Z,79.55
2022-12-11T05:53:35.361Z,80.14
2022-12-11T05:56:10.187Z,80.03
2022-12-11T05:58:42.166Z,80.11
2022-12-11T06:01:16.882Z,79.79
2022-12-11T06:03:48.888Z,79.37
2022-12-11T06:06:21.274Z,79.18
2022-12-11T06:08:55.658Z,79.38
2022-12-11T06:11:32.965Z,79.73
2022-12-11T06:14:06.008Z,79.28
2022-12-11T06:16:40.272Z,79.55
2022-12-11T06:19:18.661Z,79.72
2022-12-11T06:21:52.554Z,79.56
2022-12-11T06:24:26.663Z,79.13
2022-12-11T06:27:00.074Z,79.49
2022-12-11T06:29:33.519Z,78.88
2022-12-11T06:32:05.425Z,78.47
2022-12-11T06:34:37.438Z,79.24
2022-12-11T06:37:09.734Z,79.62
2022-12-11T06:39:43.363Z,79.47
2022-12-11T06:42:16.982Z,79.53
2022-12-11T06:44:48.458Z,79.64
2022-12-11T06:47:20.264Z,79.26
2022-12-11T06:49:54.439Z,78.68
2022-12-11T06:52:28.717Z,78.40
2022-12-11T06:55:00.612Z,78.59
2022-12-11T06:57:34.560Z,78.78
2022-12-11T07:00:08.665Z,79.21
2022-12-11T07:02:41.249Z,78.94
2022-12-11T07:05:14.695Z,78.65
2022-12-11T07:07:46.513Z,78.70
2022-12-11T07:10:18.225Z,78.83
2022-12-11T07:12:51.367Z,79.29
2022-12-11T07:15:24.117Z,79.85
2022-12-11T07:17:56.836Z,79.79
2022-12-11T07:20:28.725Z,79.12
2022-12-11T07:23:01.185Z,78.61
2022-12-11T07:25:33.021Z,78.27
2022-12-11T07:28:04.985Z,78.53
2022-12-11T07:30:37.343Z,78.38
2022-12-11T07:33:09.793Z,78.68
2022-12-11T07:35:44.148Z,78.37
2022-12-11T07:38:19.635Z,78.33
2022-12-11T07:40:51.427Z,78.36
2022-12-11T07:43:23.594Z,78.22
2022-12-11T07:45:55.206Z,77.99
2022-12-11T07:48:27.728Z,78.58
2022-12-11T07:51:09.343Z,78.56
2022-12-11T07:53:42.241Z,78.72
2022-12-11T07:56:20.365Z,78.51
2022-12-11T07:58:52.395Z,78.32
2022-12-11T08:01:30.639Z,77.96
2022-12-11T08:04:05.233Z,78.04
2022-12-11T08:06:39.937Z,78.07
2022-12-11T08:09:21.251Z,77.92
2022-12-11T08:11:56.525Z,77.98
2022-12-11T08:14:31.171Z,77.99
2022-12-11T08:17:03.182Z,78.30
2022-12-11T08:19:35.231Z,78.61
2022-12-11T08:22:09.969Z,78.56
2022-12-11T08:24:40.015Z,78.18
2022-12-11T08:27:12.000Z,77.81
2022-12-11T08:29:44.994Z,77.82
2022-12-11T08:32:17.401Z,78.07
2022-12-11T08:34:51.622Z,78.58
2022-12-11T08:37:24.886Z,78.66
2022-12-11T08:39:57.310Z,78.21
2022-12-11T08:42:28.969Z,78.05
2022-12-11T08:45:01.665Z,78.49
2022-12-11T08:47:34.912Z,78.56
2022-12-11T08:50:08.061Z,78.70
2022-12-11T08:52:41.313Z,78.35
2022-12-11T08:55:13.760Z,77.81
2022-12-11T08:57:48.478Z,78.03
2022-12-11T09:00:21.516Z,77.37
2022-12-11T09:02:53.347Z,77.29
2022-12-11T09:05:25.476Z,77.17
2022-12-11T09:07:57.375Z,76.50
2022-12-11T09:10:32.455Z,76.20
2022-12-11T09:13:04.689Z,76.74
2022-12-11T09:15:37.110Z,76.06
2022-12-11T09:18:09.260Z,76.27
2022-12-11T09:20:43.252Z,76.65
2022-12-11T09:23:17.376Z,77.40
2022-12-11T09:25:49.327Z,76.66
2022-12-11T09:28:22.457Z,76.49
2022-12-11T09:30:54.144Z,76.73
2022-12-11T09:33:25.973Z,76.72
2022-12-11T09:36:04.434Z,77.06
2022-12-11T09:38:36.901Z,77.12
2022-12-11T09:41:31.117Z,76.76
2022-12-11T09:44:22.629Z,76.47
2022-12-11T09:46:55.893Z,76.12
2022-12-11T09:49:35.374Z,76.16
2022-12-11T09:52:19.054Z,75.67
2022-12-11T09:54:56.542Z,74.39
2022-12-11T09:57:41.727Z,75.20
2022-12-11T10:00:19.203Z,76.34
2022-12-11T10:03:41.377Z,75.93
2022-12-11T10:06:22.967Z,75.32
2022-12-11T10:09:11.859Z,74.94
2022-12-11T10:12:00.940Z,74.86
2022-12-11T10:14:50.704Z,74.77
2022-12-11T10:17:30.861Z,74.95
2022-12-11T10:20:30.139Z,74.76
2022-12-11T10:23:03.874Z,75.17
2022-12-11T10:25:39.104Z,75.39
2022-12-11T10:28:16.846Z,75.58
2022-12-11T10:30:57.227Z,75.39
2022-12-11T10:34:02.885Z,75.97
2022-12-11T10:36:43.596Z,75.90
2022-12-11T10:39:32.277Z,75.83
2022-12-11T10:42:23.668Z,74.87
2022-12-11T10:45:45.314Z,75.66
2022-12-11T10:48:31.375Z,75.85
2022-12-11T10:51:11.158Z,75.62
2022-12-11T10:54:06.917Z,75.77
2022-12-11T10:56:50.717Z,76.07
2022-12-11T11:00:03.296Z,76.42
2022-12-11T11:02:47.004Z,75.76
2022-12-11T11:05:51.540Z,75.62
2022-12-11T11:09:09.202Z,75.62
2022-12-11T11:12:07.586Z,75.96
2022-12-11T11:15:20.150Z,74.74
2022-12-11T11:18:05.914Z,75.02
2022-12-11T11:21:10.992Z,75.84
2022-12-11T11:24:09.431Z,76.17
2022-12-11T11:27:14.985Z,76.34
2022-12-11T11:30:09.636Z,76.07
2022-12-11T11:35:39.023Z,75.31
2022-12-11T11:38:20.451Z,75.78
2022-12-11T11:41:20.506Z,75.49
2022-12-11T11:43:58.127Z,75.58
2022-12-11T11:49:42.244Z,76.66
2022-12-11T11:52:37.591Z,76.98
2022-12-11T11:55:22.026Z,77.04
2022-12-11T11:58:33.279Z,76.73
2022-12-11T12:01:14.465Z,76.50
2022-12-11T12:04:05.342Z,76.37
2022-12-11T12:06:59.693Z,76.57
2022-12-11T12:10:05.547Z,76.97
2022-12-11T12:12:40.532Z,77.06
2022-12-11T12:15:34.750Z,77.35
2022-12-11T12:18:18.588Z,77.50
2022-12-11T12:21:05.278Z,77.27
2022-12-11T12:24:25.042Z,76.94
2022-12-11T12:27:50.892Z,76.02
2022-12-11T12:30:55.505Z,76.64
2022-12-11T12:36:52.566Z,77.45
2022-12-11T12:39:53.213Z,77.94
2022-12-11T12:45:57.238Z,77.89
2022-12-11T12:48:53.636Z,77.40
2022-12-11T12:51:49.902Z,77.33
2022-12-11T12:54:38.234Z,77.26
2022-12-11T12:57:18.673Z,76.50
2022-12-11T13:00:12.825Z,77.21
2022-12-11T13:03:05.368Z,77.72
2022-12-11T13:06:23.075Z,78.13
2022-12-11T13:09:06.707Z,78.03
2022-12-11T13:11:52.729Z,77.20
2022-12-11T13:14:40.238Z,77.13
2022-12-11T13:17:52.161Z,77.34
2022-12-11T13:20:57.247Z,77.46
2022-12-11T13:23:49.013Z,77.67
2022-12-11T13:27:00.530Z,77.93
2022-12-11T13:30:17.160Z,78.21
2022-12-11T13:33:07.887Z,78.26
2022-12-11T13:35:54.922Z,78.55
2022-12-11T13:38:30.172Z,78.91
2022-12-11T13:41:15.590Z,79.33
2022-12-11T13:43:55.143Z,79.07
2022-12-11T13:46:31.638Z,79.48
2022-12-11T13:49:07.540Z,79.89
2022-12-11T13:51:53.190Z,79.97
2022-12-11T13:54:27.539Z,79.86
2022-12-11T13:57:17.094Z,79.64
2022-12-11T13:59:53.889Z,79.94
2022-12-11T14:02:35.854Z,79.80
2022-12-11T14:05:16.951Z,80.07
2022-12-11T14:08:05.036Z,80.25
2022-12-11T14:10:41.765Z,80.16
2022-12-11T14:13:23.678Z,79.80
2022-12-11T14:15:56.435Z,80.03
2022-12-11T14:18:35.380Z,80.03
2022-12-11T14:21:34.328Z,80.40
2022-12-11T14:24:20.136Z,80.24
2022-12-11T14:27:09.276Z,79.84
2022-12-11T14:29:49.615Z,79.52
2022-12-11T14:32:34.357Z,79.69
2022-12-11T14:35:17.792Z,79.52
2022-12-11T14:38:37.062Z,79.46
2022-12-11T14:41:47.780Z,79.72
2022-12-11T14:44:34.983Z,80.03
2022-12-11T14:47:14.694Z,80.03
2022-12-11T14:49:55.209Z,80.24
2022-12-11T14:52:32.803Z,80.87
2022-12-11T14:55:11.066Z,81.39
2022-12-11T14:57:50.430Z,81.46
2022-12-11T15:00:47.353Z,81.22
2022-12-11T15:03:42.251Z,81.42
2022-12-11T15:06:44.592Z,80.73
2022-12-11T15:09:30.429Z,80.34
2022-12-11T15:12:19.884Z,80.50
2022-12-11T15:15:16.551Z,80.24
2022-12-11T15:17:59.755Z,80.59
2022-12-11T15:20:39.576Z,80.73
2022-12-11T15:23:18.832Z,81.11
2022-12-11T15:26:34.733Z,81.10
2022-12-11T15:29:31.778Z,80.66
2022-12-11T15:32:20.863Z,80.19
2022-12-11T15:35:09.339Z,80.26
2022-12-11T15:38:44.056Z,80.53
2022-12-11T15:41:24.903Z,80.25
2022-12-11T15:44:09.801Z,79.90
2022-12-11T15:53:17.168Z,80.14
2022-12-11T15:55:56.350Z,80.62
2022-12-11T15:59:04.292Z,80.45
2022-12-11T16:02:16.221Z,80.07
2022-12-11T16:04:58.783Z,80.31
2022-12-11T16:08:01.678Z,80.46
2022-12-11T16:14:20.124Z,80.31
2022-12-11T16:17:00.674Z,80.14
2022-12-11T16:19:49.011Z,80.28
2022-12-11T16:22:45.176Z,80.60
2022-12-11T16:26:15.218Z,80.90
2022-12-11T16:29:33.645Z,80.55
2022-12-11T16:33:12.910Z,80.10
2022-12-11T16:40:11.512Z,79.68
2022-12-11T16:43:43.324Z,79.41
2022-12-11T16:54:38.294Z,79.09
2022-12-11T17:01:24.097Z,80.33
2022-12-11T17:05:51.287Z,80.20
2022-12-11T17:08:55.740Z,80.17
2022-12-11T17:19:40.310Z,79.25
2022-12-11T17:26:04.189Z,79.65
2022-12-11T17:29:20.729Z,80.08
2022-12-11T17:32:08.693Z,80.42
2022-12-11T17:38:28.828Z,80.69
2022-12-11T17:41:28.536Z,80.10
2022-12-11T17:53:02.310Z,80.31
2022-12-11T17:56:14.634Z,80.12
2022-12-11T18:08:55.452Z,80.47
2022-12-11T18:50:55.371Z,78.76
2022-12-11T18:53:32.202Z,78.70
2022-12-11T18:56:17.485Z,79.44
2022-12-11T18:58:57.745Z,79.77
2022-12-11T19:01:33.894Z,79.97
2022-12-11T19:04:10.969Z,80.18
2022-12-11T19:06:47.752Z,79.92
2022-12-11T19:09:22.937Z,79.65
2022-12-11T19:11:57.610Z,78.86
2022-12-11T19:14:33.976Z,79.28
2022-12-11T19:17:08.397Z,79.28
2022-12-11T19:19:42.235Z,79.39
2022-12-11T19:22:28.880Z,79.30
2022-12-11T19:25:04.926Z,78.98
2022-12-11T19:27:40.153Z,78.82
2022-12-11T19:30:17.479Z,79.05
2022-12-11T19:32:50.248Z,79.04
2022-12-11T19:35:27.081Z,78.94
2022-12-11T19:38:02.413Z,78.94
2022-12-11T19:40:41.279Z,78.55
2022-12-11T19:43:17.323Z,78.47
2022-12-11T19:45:51.465Z,78.30
2022-12-11T19:48:25.938Z,78.85
2022-12-11T19:51:07.645Z,78.82
2022-12-11T19:53:41.805Z,78.61
2022-12-11T19:56:18.255Z,78.33
2022-12-11T19:58:52.994Z,78.90
2022-12-11T20:01:30.699Z,78.57
2022-12-11T20:04:07.020Z,78.82
2022-12-11T20:06:42.996Z,78.83
2022-12-11T20:09:17.726Z,78.33
2022-12-11T20:11:49.887Z,78.78
2022-12-11T20:14:28.762Z,78.69
2022-12-11T20:17:12.879Z,79.23
2022-12-11T20:19:47.639Z,79.34
2022-12-11T20:22:21.402Z,78.94
2022-12-11T20:24:55.121Z,78.56
2022-12-11T20:27:30.660Z,79.08
2022-12-11T20:30:04.531Z,79.46
2022-12-11T20:32:38.240Z,79.43
2022-12-11T20:35:14.332Z,79.30
2022-12-11T20:37:49.043Z,79.68
2022-12-11T20:40:22.514Z,79.76
2022-12-11T20:42:56.208Z,80.05
2022-12-11T20:45:30.144Z,79.64
2022-12-11T20:48:02.993Z,79.63
2022-12-11T20:50:39.980Z,79.73
2022-12-11T20:53:12.915Z,79.54
2022-12-11T20:55:51.569Z,79.66
2022-12-11T20:58:27.072Z,79.85
2022-12-11T21:01:03.728Z,79.79
2022-12-11T21:03:42.005Z,79.40
2022-12-11T21:06:21.810Z,79.68
2022-12-11T21:08:55.222Z,79.24
2022-12-11T21:11:29.292Z,79.38
2022-12-11T21:14:01.659Z,79.48
2022-12-11T21:16:34.324Z,79.19
2022-12-11T21:19:10.244Z,79.23
2022-12-11T21:21:49.288Z,79.47
2022-12-11T21:24:25.343Z,79.46
2022-12-11T21:26:58.027Z,79.57
2022-12-11T21:29:31.745Z,79.56
2022-12-11T21:32:03.819Z,80.01
2022-12-11T21:34:38.095Z,79.83
2022-12-11T21:37:09.964Z,79.92
2022-12-11T21:39:41.834Z,80.29
2022-12-11T21:42:17.495Z,80.52
2022-12-11T21:47:41.531Z,80.57
2022-12-11T21:50:14.000Z,80.57
2022-12-11T21:52:46.559Z,80.80
2022-12-11T21:55:18.808Z,80.48
2022-12-11T21:57:51.342Z,80.29
2022-12-11T22:00:24.956Z,80.24
2022-12-11T22:02:56.575Z,80.40
2022-12-11T22:05:28.416Z,80.60
2022-12-11T22:08:00.360Z,80.92
2022-12-11T22:10:33.319Z,80.97
2022-12-11T22:13:05.335Z,80.86
2022-12-11T22:15:37.189Z,80.73
2022-12-11T22:18:09.729Z,80.63
2022-12-11T22:20:47.413Z,80.63
2022-12-11T22:23:18.945Z,80.28
2022-12-11T22:25:51.105Z,79.68
2022-12-11T22:28:22.937Z,79.54
2022-12-11T22:30:54.763Z,79.26
2022-12-11T22:33:26.694Z,79.88
2022-12-11T22:36:01.731Z,80.15
2022-12-11T22:38:33.368Z,80.29
2022-12-11T22:41:11.440Z,79.89
2022-12-11T22:43:43.131Z,79.94
2022-12-11T22:46:19.727Z,79.53
2022-12-11T22:48:51.559Z,79.60
2022-12-11T22:51:25.470Z,79.73
2022-12-11T22:53:57.513Z,79.27
2022-12-11T22:56:29.275Z,79.15
2022-12-11T22:59:01.856Z,79.37
2022-12-11T23:01:35.239Z,79.64
2022-12-11T23:04:07.026Z,79.46
2022-12-11T23:06:39.505Z,79.42
2022-12-11T23:09:12.222Z,79.88
2022-12-11T23:11:43.838Z,80.15
2022-12-11T23:14:18.672Z,79.87
2022-12-11T23:16:48.701Z,80.25
2022-12-11T23:19:25.238Z,79.99
2022-12-11T23:21:57.678Z,79.79
2022-12-11T23:24:31.758Z,79.64
2022-12-11T23:27:04.146Z,79.38
2022-12-11T23:29:36.220Z,79.65
2022-12-11T23:32:07.863Z,79.88
2022-12-11T23:34:39.484Z,79.51
2022-12-11T23:37:11.398Z,79.74
2022-12-11T23:39:42.988Z,79.81
2022-12-11T23:42:14.652Z,79.53
2022-12-11T23:44:46.163Z,79.13
2022-12-11T23:47:17.840Z,78.80
2022-12-11T23:49:49.558Z,78.98
2022-12-11T23:52:22.903Z,79.04
2022-12-11T23:54:55.686Z,79.24
2022-12-11T23:57:27.443Z,79.16
2022-12-11T23:59:59.621Z,78.95
